Time;durP1;ratioP1;P1;durP2;ratioP2;P2;SDS_P1;SDS_P2;PMS_P1;PMS_P2;Temp;Humidity;BMP_temperature;BMP_pressure;BME280_temperature;BME280_humidity;BME280_pressure;Samples;Min_cycle;Max_cycle;Signal;HPM_P1;HPM_P2
2022/09/16 00:02:03;;;;;;;6.90;2.87;;;21.80;74.00;;;;;;4991795;28;20216;-71
2022/09/16 00:04:30;;;;;;;9.40;2.40;;;21.80;74.00;;;;;;4982736;28;20287;-71
2022/09/16 00:06:57;;;;;;;8.20;3.03;;;21.80;73.80;;;;;;4995981;28;20503;-71
2022/09/16 00:09:24;;;;;;;14.17;2.33;;;21.80;73.70;;;;;;4974912;28;20503;-71
2022/09/16 00:11:51;;;;;;;5.23;2.60;;;21.80;73.70;;;;;;4978394;28;20212;-71
2022/09/16 00:14:18;;;;;;;7.60;2.43;;;21.80;73.60;;;;;;4994657;28;20209;-71
2022/09/16 00:16:45;;;;;;;11.43;3.10;;;21.80;73.60;;;;;;4975664;28;20236;-71
2022/09/16 00:19:13;;;;;;;11.00;2.53;;;21.70;73.70;;;;;;4986414;28;20221;-72
2022/09/16 00:21:40;;;;;;;6.27;2.93;;;21.70;73.80;;;;;;4990218;28;20207;-71
2022/09/16 00:24:12;;;;;;;12.50;2.60;;;21.60;73.90;;;;;;4966780;28;20209;-71
2022/09/16 00:26:40;;;;;;;9.80;2.80;;;21.60;74.00;;;;;;4975550;28;20227;-71
2022/09/16 00:29:07;;;;;;;6.17;2.93;;;21.60;74.00;;;;;;4992280;28;20247;-72
2022/09/16 00:31:34;;;;;;;6.10;2.67;;;21.60;74.00;;;;;;4978710;28;20204;-71
2022/09/16 00:34:02;;;;;;;8.80;2.93;;;21.60;73.90;;;;;;4992440;28;20199;-71
2022/09/16 00:36:29;;;;;;;7.87;2.60;;;21.60;73.80;;;;;;4980410;28;20231;-71
2022/09/16 00:38:56;;;;;;;6.73;2.63;;;21.50;74.00;;;;;;4973416;28;20566;-72
2022/09/16 00:41:32;;;;;;;5.70;2.23;;;21.50;74.30;;;;;;4992307;28;20572;-71
2022/09/16 00:44:02;;;;;;;6.63;2.40;;;21.50;74.70;;;;;;4992375;28;20204;-71
2022/09/16 00:46:34;;;;;;;7.97;2.47;;;21.50;74.80;;;;;;4972459;28;20202;-71
2022/09/16 00:49:15;;;;;;;6.13;2.43;;;21.40;74.90;;;;;;4992192;28;20208;-71
2022/09/16 00:51:46;;;;;;;9.47;3.17;;;21.50;75.00;;;;;;4991507;28;20204;-71
2022/09/16 00:54:16;;;;;;;7.03;2.47;;;21.40;74.80;;;;;;4991271;28;20208;-71
2022/09/16 00:56:46;;;;;;;8.80;3.00;;;21.40;74.90;;;;;;4989923;28;20637;-71
2022/09/16 00:59:23;;;;;;;7.67;2.93;;;21.40;75.00;;;;;;4990948;28;20290;-71
2022/09/16 01:01:52;;;;;;;6.97;2.60;;;21.40;75.00;;;;;;4990206;28;20588;-71
2022/09/16 01:04:29;;;;;;;7.97;2.67;;;21.40;74.90;;;;;;4978845;28;20235;-71
2022/09/16 01:06:56;;;;;;;8.90;3.60;;;21.40;74.70;;;;;;4989123;28;20239;-71
2022/09/16 01:09:24;;;;;;;5.07;2.27;;;21.30;74.50;;;;;;4994394;28;20214;-71
2022/09/16 01:11:51;;;;;;;8.50;2.43;;;21.30;74.30;;;;;;4990444;28;20255;-72
2022/09/16 01:17:43;;;;;;;9.40;2.50;;;21.20;74.30;;;;;;4993416;28;20215;-71
2022/09/16 01:20:35;;;;;;;5.73;2.10;;;21.20;74.50;;;;;;4993894;28;20270;-71
2022/09/16 01:23:39;;;;;;;8.77;2.50;;;21.20;74.70;;;;;;4979778;28;20474;-71
2022/09/16 01:27:00;;;;;;;5.23;2.27;;;21.10;74.80;;;;;;4991090;28;20267;-71
2022/09/16 01:29:27;;;;;;;12.03;3.70;;;21.20;74.80;;;;;;4911684;29;20214;-72
2022/09/16 01:32:20;;;;;;;8.43;2.30;;;21.20;74.60;;;;;;4963992;28;20267;-71
2022/09/16 01:35:07;;;;;;;6.83;2.57;;;21.20;74.50;;;;;;4991307;28;20593;-72
2022/09/16 01:37:58;;;;;;;3.57;2.03;;;21.10;74.40;;;;;;4990578;28;20213;-71
2022/09/16 01:40:42;;;;;;;10.30;2.53;;;21.10;74.30;;;;;;4974793;28;20207;-71
2022/09/16 01:43:41;;;;;;;8.67;2.03;;;21.10;74.20;;;;;;4991052;28;20640;-71
2022/09/16 01:46:36;;;;;;;5.83;2.17;;;21.10;74.10;;;;;;4968391;28;20262;-72
2022/09/16 01:49:21;;;;;;;7.77;2.40;;;21.10;74.10;;;;;;4987366;28;20262;-71
2022/09/16 01:52:05;;;;;;;6.57;2.40;;;21.10;74.10;;;;;;4991371;28;20216;-71
2022/09/16 01:54:40;;;;;;;5.13;1.73;;;21.10;74.10;;;;;;4989156;28;20282;-71
2022/09/16 01:57:12;;;;;;;5.80;2.00;;;21.00;74.40;;;;;;4993936;28;20210;-71
2022/09/16 02:00:05;;;;;;;11.90;2.30;;;20.90;74.40;;;;;;4993532;28;20584;-71
2022/09/16 02:02:45;;;;;;;7.83;2.10;;;20.80;74.60;;;;;;4991147;28;20245;-71
2022/09/16 02:05:25;;;;;;;3.07;2.00;;;20.80;75.10;;;;;;4976068;28;20235;-71
2022/09/16 02:08:00;;;;;;;6.10;2.27;;;20.70;75.30;;;;;;4988903;28;20268;-71
2022/09/16 02:10:43;;;;;;;7.73;2.23;;;20.70;75.40;;;;;;4971379;28;20246;-72
2022/09/16 02:13:18;;;;;;;4.60;2.47;;;20.70;75.40;;;;;;4990867;28;20191;-71
2022/09/16 02:15:50;;;;;;;8.50;2.80;;;20.70;75.50;;;;;;4960331;28;20285;-71
2022/09/16 02:18:23;;;;;;;7.20;2.73;;;20.70;76.20;;;;;;4987882;28;20212;-71
2022/09/16 02:20:52;;;;;;;7.87;2.83;;;20.70;75.50;;;;;;4989188;28;20204;-71
2022/09/16 02:23:23;;;;;;;8.70;2.83;;;20.60;75.60;;;;;;4989569;28;20231;-72
2022/09/16 02:25:52;;;;;;;6.70;2.73;;;20.60;75.90;;;;;;4994509;28;20211;-71
2022/09/16 02:28:33;;;;;;;9.13;2.43;;;20.60;76.20;;;;;;4989274;28;20240;-71
2022/09/16 02:31:04;;;;;;;5.73;2.37;;;20.60;76.30;;;;;;4992895;28;20569;-71
2022/09/16 02:33:54;;;;;;;7.50;2.60;;;20.60;76.20;;;;;;4970343;28;20208;-71
2022/09/16 02:36:24;;;;;;;5.03;2.63;;;20.60;76.50;;;;;;4992657;28;20303;-71
2022/09/16 02:38:58;;;;;;;10.40;2.80;;;20.60;76.60;;;;;;4976983;28;20236;-71
2022/09/16 02:41:26;;;;;;;5.77;2.27;;;20.60;76.60;;;;;;4992317;28;20211;-71
2022/09/16 02:43:53;;;;;;;5.57;2.40;;;20.50;76.30;;;;;;4989574;28;20267;-72
2022/09/16 02:46:20;;;;;;;7.40;2.97;;;20.50;76.30;;;;;;4973785;28;20208;-71
2022/09/16 02:49:02;;;;;;;4.80;2.20;;;20.50;76.50;;;;;;4974955;28;20641;-71
2022/09/16 02:51:41;;;;;;;7.13;2.17;;;20.40;76.80;;;;;;4989806;28;20216;-71
2022/09/16 02:54:17;;;;;;;5.80;2.77;;;20.40;76.90;;;;;;4975487;28;20238;-71
2022/09/16 02:56:45;;;;;;;4.43;2.20;;;20.40;77.20;;;;;;4990903;28;20574;-71
2022/09/16 02:59:13;;;;;;;6.40;2.60;;;20.30;77.40;;;;;;4990587;28;20218;-71
2022/09/16 03:01:44;;;;;;;7.03;2.03;;;20.30;77.50;;;;;;4988536;28;20206;-71
2022/09/16 03:04:14;;;;;;;6.93;3.17;;;20.30;77.40;;;;;;4992935;28;20190;-71
2022/09/16 03:06:41;;;;;;;7.97;2.80;;;20.30;77.30;;;;;;4990665;28;20265;-71
2022/09/16 03:09:12;;;;;;;7.07;3.17;;;20.20;77.50;;;;;;4977855;28;20298;-72
2022/09/16 03:11:41;;;;;;;6.87;2.33;;;20.20;77.70;;;;;;4970291;28;20223;-72
2022/09/16 03:14:29;;;;;;;6.87;2.87;;;20.20;77.70;;;;;;4990612;28;20238;-71
2022/09/16 03:17:21;;;;;;;6.97;2.53;;;20.10;78.00;;;;;;4973949;28;20600;-71
2022/09/16 03:19:54;;;;;;;8.83;2.87;;;20.10;78.10;;;;;;4989189;28;20233;-71
2022/09/16 03:22:53;;;;;;;6.37;2.80;;;20.10;78.10;;;;;;4990108;28;20216;-71
2022/09/16 03:25:44;;;;;;;7.00;2.47;;;20.00;78.30;;;;;;4990766;28;20287;-71
2022/09/16 03:28:42;;;;;;;7.67;3.33;;;20.00;78.50;;;;;;4991423;28;20204;-71
2022/09/16 03:31:31;;;;;;;6.27;2.37;;;20.00;78.90;;;;;;4953927;28;20823;-71
2022/09/16 03:34:15;;;;;;;3.40;2.40;;;20.00;78.70;;;;;;4997811;28;20202;-71
2022/09/16 03:36:50;;;;;;;4.53;2.10;;;20.00;78.60;;;;;;4996893;28;20211;-71
2022/09/16 03:39:19;;;;;;;2.70;1.90;;;19.90;78.50;;;;;;4977733;28;20210;-71
2022/09/16 03:41:46;;;;;;;6.97;2.50;;;19.90;78.50;;;;;;4995700;28;20224;-71
2022/09/16 03:44:13;;;;;;;3.23;2.13;;;19.90;78.80;;;;;;4993254;28;20308;-71
2022/09/16 03:46:40;;;;;;;5.67;2.93;;;19.90;79.10;;;;;;4991829;28;20243;-72
2022/09/16 03:49:08;;;;;;;3.90;2.40;;;19.90;79.20;;;;;;4994554;28;20229;-71
2022/09/16 03:51:35;;;;;;;4.63;2.50;;;19.90;79.20;;;;;;4974912;28;20246;-71
2022/09/16 03:54:02;;;;;;;4.93;2.40;;;19.80;79.00;;;;;;4980260;28;20534;-71
2022/09/16 03:56:29;;;;;;;8.47;2.80;;;19.80;79.20;;;;;;4994451;28;20266;-71
2022/09/16 03:58:56;;;;;;;5.80;2.33;;;19.80;79.50;;;;;;4994131;28;20219;-71
2022/09/16 04:01:23;;;;;;;8.37;2.57;;;19.80;79.80;;;;;;4974286;28;20211;-71
2022/09/16 04:03:51;;;;;;;6.83;2.50;;;19.70;79.90;;;;;;4975045;28;20229;-72
2022/09/16 04:06:18;;;;;;;6.50;2.77;;;19.80;79.90;;;;;;4992667;28;20290;-70
2022/09/16 04:08:46;;;;;;;8.13;3.07;;;19.80;79.80;;;;;;4977667;28;20692;-71
2022/09/16 04:11:13;;;;;;;5.40;2.73;;;19.70;79.70;;;;;;4995744;28;20281;-71
2022/09/16 04:13:40;;;;;;;7.70;2.70;;;19.70;79.90;;;;;;4973893;28;20597;-71
2022/09/16 04:16:07;;;;;;;6.23;2.37;;;19.70;80.00;;;;;;4979378;28;20640;-72
2022/09/16 04:18:35;;;;;;;6.73;2.37;;;19.70;80.00;;;;;;4991871;28;20656;-71
2022/09/16 04:21:03;;;;;;;6.00;2.70;;;19.70;79.90;;;;;;4981258;28;20322;-71
2022/09/16 04:23:30;;;;;;;8.13;2.53;;;19.60;79.90;;;;;;4976373;28;20620;-71
2022/09/16 04:26:02;;;;;;;6.90;2.27;;;19.70;80.10;;;;;;4959744;28;20633;-71
2022/09/16 04:28:32;;;;;;;4.97;2.33;;;19.60;80.30;;;;;;4974036;28;20202;-72
2022/09/16 04:31:01;;;;;;;6.97;2.50;;;19.70;80.50;;;;;;4995172;28;20214;-71
2022/09/16 04:33:30;;;;;;;4.73;2.53;;;19.70;80.60;;;;;;4979367;28;20287;-71
2022/09/16 04:36:07;;;;;;;8.83;2.53;;;19.70;80.60;;;;;;4974964;28;20210;-71
2022/09/16 04:38:37;;;;;;;2.97;1.93;;;19.70;80.80;;;;;;4974712;28;20240;-71
2022/09/16 04:41:10;;;;;;;8.37;2.67;;;19.70;80.90;;;;;;4977066;28;20596;-72
2022/09/16 04:43:38;;;;;;;7.90;2.60;;;19.70;80.70;;;;;;4991678;28;20235;-72
2022/09/16 04:46:06;;;;;;;6.37;2.60;;;19.70;80.50;;;;;;4997277;28;20208;-71
2022/09/16 04:48:33;;;;;;;5.57;2.20;;;19.70;80.40;;;;;;4989826;28;20230;-72
2022/09/16 04:51:04;;;;;;;8.80;2.80;;;19.80;80.30;;;;;;4992460;28;20618;-71
2022/09/16 04:53:32;;;;;;;6.20;2.67;;;19.80;80.30;;;;;;4994068;28;20291;-71
2022/09/16 04:56:07;;;;;;;6.03;2.50;;;19.80;80.20;;;;;;4993509;28;20243;-71
2022/09/16 04:58:35;;;;;;;8.00;2.50;;;19.80;79.90;;;;;;4993460;28;20570;-71
2022/09/16 05:01:19;;;;;;;7.73;3.00;;;19.70;79.70;;;;;;4992302;28;20278;-71
2022/09/16 05:03:49;;;;;;;10.60;2.67;;;19.70;80.10;;;;;;4995036;28;20522;-71
2022/09/16 05:06:25;;;;;;;4.57;2.60;;;19.60;80.30;;;;;;4977446;28;20213;-71
2022/09/16 05:08:54;;;;;;;5.80;2.80;;;19.60;80.40;;;;;;4976095;28;20206;-71
2022/09/16 05:11:27;;;;;;;7.17;3.00;;;19.60;80.40;;;;;;4972919;28;20200;-71
2022/09/16 05:13:57;;;;;;;6.47;2.67;;;19.60;80.50;;;;;;4978364;28;20695;-71
2022/09/16 05:16:26;;;;;;;7.03;2.40;;;19.60;80.50;;;;;;4975463;28;20219;-71
2022/09/16 05:18:58;;;;;;;4.87;2.60;;;19.50;79.90;;;;;;4994784;28;20247;-71
2022/09/16 05:21:27;;;;;;;4.17;2.00;;;19.50;80.00;;;;;;4974993;28;20197;-71
2022/09/16 05:23:58;;;;;;;5.97;2.70;;;19.50;80.20;;;;;;4971304;28;20225;-72
2022/09/16 05:26:27;;;;;;;6.47;2.53;;;19.50;80.70;;;;;;4990187;28;20261;-72
2022/09/16 05:28:54;;;;;;;4.87;2.60;;;19.50;80.00;;;;;;4989961;28;20190;-71
2022/09/16 05:31:30;;;;;;;5.97;2.57;;;19.50;80.00;;;;;;4986107;28;20277;-72
2022/09/16 05:34:05;;;;;;;9.70;2.90;;;19.60;80.00;;;;;;4962055;28;20579;-71
2022/09/16 05:36:35;;;;;;;7.40;2.43;;;19.70;79.90;;;;;;4979239;28;20206;-71
2022/09/16 05:39:02;;;;;;;6.97;2.73;;;19.70;80.00;;;;;;4986276;28;20527;-71
2022/09/16 05:41:53;;;;;;;5.93;2.90;;;19.70;80.20;;;;;;4976682;28;20206;-71
2022/09/16 05:44:20;;;;;;;10.47;2.83;;;19.80;80.50;;;;;;4974997;28;20281;-71
2022/09/16 05:46:47;;;;;;;6.13;3.17;;;19.80;80.60;;;;;;4978686;28;20212;-71
2022/09/16 05:49:19;;;;;;;5.90;2.73;;;20.00;80.80;;;;;;4992360;28;20245;-71
2022/09/16 05:51:47;;;;;;;8.13;2.60;;;20.00;81.40;;;;;;4975580;28;20216;-72
2022/09/16 05:54:17;;;;;;;4.60;2.73;;;20.20;80.70;;;;;;4994376;28;20203;-71
2022/09/16 05:56:45;;;;;;;12.90;2.87;;;20.30;80.50;;;;;;4990056;28;20196;-71
2022/09/16 05:59:13;;;;;;;9.03;2.67;;;20.50;80.20;;;;;;4990940;28;20353;-71
2022/09/16 06:01:41;;;;;;;5.77;2.23;;;20.70;79.80;;;;;;4995033;28;20568;-72
2022/09/16 06:04:11;;;;;;;6.00;2.20;;;20.90;79.30;;;;;;4993976;28;20616;-71
2022/09/16 06:06:47;;;;;;;6.97;2.20;;;21.10;78.60;;;;;;4972497;28;20204;-72
2022/09/16 06:09:19;;;;;;;7.27;2.53;;;21.20;78.10;;;;;;4990449;28;20270;-71
2022/09/16 06:11:49;;;;;;;6.30;2.77;;;21.30;77.40;;;;;;4985228;28;20208;-72
2022/09/16 06:14:17;;;;;;;13.10;3.20;;;21.40;77.20;;;;;;4976923;28;20295;-71
2022/09/16 06:16:45;;;;;;;6.33;2.30;;;21.50;77.50;;;;;;4992090;28;20239;-71
2022/09/16 06:19:19;;;;;;;4.07;2.40;;;21.60;77.30;;;;;;5057217;28;20609;-71
2022/09/16 06:21:47;;;;;;;8.93;2.97;;;21.70;76.90;;;;;;5030049;28;20308;-71
2022/09/16 06:24:16;;;;;;;12.03;2.83;;;21.80;76.70;;;;;;5038346;28;20212;-72
2022/09/16 06:26:45;;;;;;;7.00;2.50;;;22.00;75.70;;;;;;5041628;28;20189;-72
2022/09/16 06:29:13;;;;;;;18.67;3.70;;;22.10;75.20;;;;;;5041975;28;20206;-72
2022/09/16 06:31:41;;;;;;;6.17;2.67;;;22.20;75.00;;;;;;5043939;28;20606;-73
2022/09/16 06:34:13;;;;;;;16.57;3.60;;;22.20;74.60;;;;;;5039897;28;20624;-72
2022/09/16 06:36:41;;;;;;;7.87;3.03;;;22.40;74.20;;;;;;5045170;28;20218;-72
2022/09/16 06:39:13;;;;;;;6.37;2.43;;;22.40;74.00;;;;;;5034150;28;20273;-72
2022/09/16 06:41:40;;;;;;;6.10;2.63;;;22.50;73.60;;;;;;5040455;28;20264;-71
2022/09/16 06:44:07;;;;;;;7.77;2.70;;;22.60;73.50;;;;;;5037650;28;20191;-72
2022/09/16 06:46:34;;;;;;;5.23;2.50;;;22.70;73.40;;;;;;5040335;28;20206;-71
2022/09/16 06:49:01;;;;;;;7.50;2.63;;;22.80;73.40;;;;;;5039220;28;20763;-72
2022/09/16 06:51:33;;;;;;;7.00;2.93;;;22.90;73.40;;;;;;5037211;28;20209;-71
2022/09/16 06:54:03;;;;;;;6.70;3.27;;;23.10;73.40;;;;;;5042683;28;20214;-72
2022/09/16 06:56:30;;;;;;;6.23;2.53;;;23.20;72.90;;;;;;5030233;28;20226;-71
2022/09/16 06:58:57;;;;;;;5.63;3.47;;;23.30;72.70;;;;;;5038760;28;20257;-71
2022/09/16 07:01:29;;;;;;;12.97;3.63;;;23.40;72.80;;;;;;5040465;28;20221;-72
2022/09/16 07:03:57;;;;;;;11.30;3.57;;;23.50;73.60;;;;;;5040743;28;20260;-72
2022/09/16 07:06:29;;;;;;;4.77;2.90;;;23.60;74.20;;;;;;5041801;28;20257;-72
2022/09/16 07:09:16;;;;;;;11.60;4.23;;;23.60;73.40;;;;;;5036804;28;20203;-71
2022/09/16 07:11:43;;;;;;;7.60;4.67;;;23.70;73.70;;;;;;5036091;28;20206;-72
2022/09/16 07:14:11;;;;;;;15.77;4.80;;;23.70;73.90;;;;;;5039114;28;20218;-71
2022/09/16 07:16:38;;;;;;;15.17;4.27;;;23.70;73.80;;;;;;5046351;28;20214;-72
2022/09/16 07:19:05;;;;;;;11.30;4.30;;;23.70;73.90;;;;;;5024746;28;20269;-72
2022/09/16 07:21:32;;;;;;;13.53;4.57;;;23.80;74.00;;;;;;5039250;28;20212;-72
2022/09/16 07:24:01;;;;;;;11.90;4.23;;;23.90;73.10;;;;;;5039448;28;20229;-72
2022/09/16 07:26:32;;;;;;;12.30;4.83;;;24.00;73.30;;;;;;5037116;28;20205;-72
2022/09/16 07:29:02;;;;;;;16.30;5.17;;;24.00;73.60;;;;;;5033701;28;20562;-72
2022/09/16 07:31:31;;;;;;;14.37;4.97;;;24.10;73.50;;;;;;5022811;28;20269;-72
2022/09/16 07:34:03;;;;;;;17.27;4.83;;;24.10;73.50;;;;;;5022551;28;20204;-72
2022/09/16 07:36:36;;;;;;;12.47;5.47;;;24.30;72.80;;;;;;5021332;28;20276;-71
2022/09/16 07:39:04;;;;;;;13.97;5.50;;;24.40;73.00;;;;;;5031578;28;20262;-72
2022/09/16 07:41:35;;;;;;;14.17;5.27;;;24.60;72.50;;;;;;5027541;28;20243;-72
2022/09/16 07:44:03;;;;;;;16.50;4.60;;;24.70;71.80;;;;;;5027303;28;20215;-72
2022/09/16 07:46:33;;;;;;;13.17;4.87;;;24.80;71.40;;;;;;5022432;28;21049;-71
2022/09/16 07:49:02;;;;;;;14.67;5.40;;;24.90;71.20;;;;;;5028719;28;20280;-71
2022/09/16 07:51:30;;;;;;;16.40;5.93;;;25.00;71.00;;;;;;5023773;28;20258;-71
2022/09/16 07:54:01;;;;;;;12.00;4.73;;;25.20;71.40;;;;;;5023644;28;20231;-71
2022/09/16 07:56:30;;;;;;;18.07;5.30;;;25.40;71.10;;;;;;5053455;28;20208;-71
2022/09/16 07:58:57;;;;;;;19.67;5.10;;;25.50;70.60;;;;;;5020079;28;20231;-71
2022/09/16 08:01:25;;;;;;;17.93;5.43;;;25.70;70.60;;;;;;5021138;28;20206;-71
2022/09/16 08:03:54;;;;;;;17.17;5.70;;;25.90;69.60;;;;;;5025539;28;20280;-71
2022/09/16 08:06:26;;;;;;;14.37;5.00;;;26.00;69.30;;;;;;5032309;28;20214;-71
2022/09/16 08:08:56;;;;;;;13.20;4.67;;;26.20;68.90;;;;;;5024296;28;20204;-71
2022/09/16 08:11:36;;;;;;;13.07;5.53;;;26.30;68.30;;;;;;5024526;28;20226;-71
2022/09/16 08:14:03;;;;;;;15.23;4.10;;;26.40;67.90;;;;;;5021004;28;20208;-71
2022/09/16 08:16:30;;;;;;;16.87;5.10;;;26.50;67.60;;;;;;5024680;28;20235;-71
2022/09/16 08:18:58;;;;;;;12.80;5.00;;;26.70;67.40;;;;;;5022772;28;20237;-71
2022/09/16 08:21:27;;;;;;;11.93;4.33;;;26.80;67.00;;;;;;5018556;28;20679;-71
2022/09/16 08:23:56;;;;;;;14.37;5.47;;;26.90;66.70;;;;;;5057209;28;20536;-71
2022/09/16 08:26:24;;;;;;;14.90;7.73;;;27.00;66.20;;;;;;5024984;28;20214;-71
2022/09/16 08:28:51;;;;;;;27.67;14.60;;;27.20;66.00;;;;;;5010432;28;20213;-71
2022/09/16 08:31:37;;;;;;;27.37;14.03;;;27.30;65.90;;;;;;5027691;28;20213;-72
2022/09/16 08:34:04;;;;;;;22.10;12.53;;;27.40;65.70;;;;;;5020892;28;20225;-71
2022/09/16 08:36:32;;;;;;;20.17;9.37;;;27.60;65.50;;;;;;5024396;28;20210;-71
2022/09/16 08:39:00;;;;;;;13.77;7.07;;;27.70;64.50;;;;;;5026932;28;20214;-71
2022/09/16 08:41:30;;;;;;;14.30;6.63;;;27.80;64.40;;;;;;5026903;28;20278;-71
2022/09/16 08:44:15;;;;;;;13.97;8.77;;;27.90;63.80;;;;;;5024951;28;20259;-71
2022/09/16 08:46:57;;;;;;;11.50;8.00;;;28.00;62.80;;;;;;5027853;28;20250;-71
2022/09/16 08:49:43;;;;;;;21.47;11.77;;;28.10;61.90;;;;;;5021568;28;20207;-71
2022/09/16 08:52:36;;;;;;;14.40;7.70;;;28.10;62.20;;;;;;5023430;28;20215;-71
2022/09/16 08:55:30;;;;;;;14.73;7.63;;;28.20;62.20;;;;;;5041433;28;20576;-71
2022/09/16 08:58:17;;;;;;;21.93;11.40;;;28.30;62.60;;;;;;5026930;28;20253;-71
2022/09/16 09:01:02;;;;;;;16.83;9.87;;;28.50;62.40;;;;;;5027267;28;20232;-71
2022/09/16 09:03:39;;;;;;;14.60;8.03;;;28.60;61.40;;;;;;5014818;28;20519;-71
2022/09/16 09:06:35;;;;;;;12.87;6.90;;;28.70;61.20;;;;;;5023497;28;20199;-71
2022/09/16 09:09:30;;;;;;;14.00;6.47;;;28.80;59.90;;;;;;5016509;28;20240;-71
2022/09/16 09:11:57;;;;;;;11.57;5.47;;;28.90;60.00;;;;;;5028092;28;20281;-71
2022/09/16 09:14:43;;;;;;;15.80;5.97;;;28.90;60.00;;;;;;5021789;28;20719;-72
2022/09/16 09:17:46;;;;;;;10.20;4.67;;;29.00;60.00;;;;;;5024738;28;20290;-71
2022/09/16 09:20:25;;;;;;;12.97;4.13;;;29.20;59.90;;;;;;5021814;28;20200;-71
2022/09/16 09:23:09;;;;;;;8.37;3.43;;;29.40;60.50;;;;;;5025833;28;20203;-71
2022/09/16 09:25:45;;;;;;;13.07;3.67;;;29.50;59.70;;;;;;5024738;28;20671;-71
2022/09/16 09:28:25;;;;;;;8.93;3.53;;;29.50;59.50;;;;;;5023058;28;20205;-71
2022/09/16 09:31:19;;;;;;;9.40;3.00;;;29.60;59.00;;;;;;5020405;28;20272;-71
2022/09/16 09:33:59;;;;;;;9.90;3.73;;;29.70;58.30;;;;;;5024005;28;20199;-71
2022/09/16 09:36:32;;;;;;;7.27;3.20;;;29.80;57.80;;;;;;5024093;28;20207;-71
2022/09/16 09:39:15;;;;;;;10.40;3.60;;;29.90;57.30;;;;;;5021501;28;20227;-71
2022/09/16 09:41:46;;;;;;;7.43;2.90;;;29.90;56.50;;;;;;5019758;28;20211;-71
2022/09/16 09:44:38;;;;;;;9.83;3.50;;;30.00;57.40;;;;;;5008625;28;20212;-71
2022/09/16 09:47:11;;;;;;;9.73;2.70;;;30.00;57.20;;;;;;5025336;28;20204;-71
2022/09/16 09:49:46;;;;;;;6.60;3.20;;;30.10;55.80;;;;;;5023911;28;20525;-71
2022/09/16 09:52:22;;;;;;;12.33;3.47;;;30.20;56.30;;;;;;5031083;28;20218;-71
2022/09/16 09:54:50;;;;;;;6.90;3.00;;;30.20;55.50;;;;;;5037337;28;20215;-70
2022/09/16 09:57:36;;;;;;;12.40;3.10;;;30.20;54.70;;;;;;5023310;28;20599;-71
2022/09/16 10:00:19;;;;;;;10.63;2.53;;;30.10;55.10;;;;;;5033609;28;20246;-72
2022/09/16 10:02:47;;;;;;;7.43;2.33;;;30.10;55.90;;;;;;5025320;28;20682;-71
2022/09/16 10:05:21;;;;;;;12.60;3.13;;;30.20;55.90;;;;;;5022759;28;20585;-71
2022/09/16 10:07:51;;;;;;;11.20;3.00;;;30.20;56.50;;;;;;5018980;28;20212;-70
2022/09/16 10:10:21;;;;;;;11.23;2.73;;;30.30;54.70;;;;;;5022312;28;20265;-71
2022/09/16 10:12:49;;;;;;;11.47;3.03;;;30.40;54.50;;;;;;5022186;28;20204;-71
2022/09/16 10:15:24;;;;;;;12.10;2.90;;;30.30;55.30;;;;;;5021329;28;20212;-70
2022/09/16 10:17:53;;;;;;;7.73;3.00;;;30.40;55.10;;;;;;5024640;28;20237;-71
2022/09/16 10:20:42;;;;;;;9.43;2.83;;;30.40;54.10;;;;;;5020162;28;20204;-71
2022/09/16 10:23:18;;;;;;;9.33;2.93;;;30.40;54.20;;;;;;5024497;28;20208;-71
2022/09/16 10:25:45;;;;;;;12.93;3.70;;;30.50;55.40;;;;;;5037282;28;20199;-71
2022/09/16 10:28:24;;;;;;;17.80;3.03;;;30.50;55.10;;;;;;5020898;28;20736;-72
2022/09/16 10:30:57;;;;;;;14.93;3.40;;;30.70;55.00;;;;;;5021038;28;20191;-71
2022/09/16 10:33:44;;;;;;;11.03;3.03;;;30.80;54.40;;;;;;5022533;28;20706;-71
2022/09/16 10:36:22;;;;;;;12.73;3.30;;;30.90;53.80;;;;;;5018510;28;20226;-71
2022/09/16 10:38:59;;;;;;;13.27;3.10;;;31.00;54.40;;;;;;5019651;28;20296;-71
2022/09/16 10:41:45;;;;;;;11.33;2.63;;;31.10;54.30;;;;;;5020528;28;20203;-71
2022/09/16 10:44:19;;;;;;;9.20;2.70;;;31.30;53.30;;;;;;5020619;28;20219;-71
2022/09/16 10:47:02;;;;;;;8.40;3.10;;;31.40;53.30;;;;;;5026329;28;20632;-71
2022/09/16 10:49:42;;;;;;;7.83;3.07;;;31.60;51.80;;;;;;5019396;28;20228;-71
2022/09/16 10:52:22;;;;;;;10.67;2.70;;;31.60;52.60;;;;;;5023679;28;20214;-71
2022/09/16 10:54:49;;;;;;;13.67;3.10;;;31.60;51.50;;;;;;5024743;28;20203;-71
2022/09/16 10:57:31;;;;;;;10.50;2.70;;;31.60;51.50;;;;;;5022068;28;20215;-71
2022/09/16 11:00:09;;;;;;;10.17;3.00;;;31.60;51.50;;;;;;5018890;28;20273;-71
2022/09/16 11:02:45;;;;;;;11.97;3.00;;;31.70;51.80;;;;;;5022408;28;20269;-71
2022/09/16 11:05:34;;;;;;;7.93;2.40;;;31.70;51.00;;;;;;5022292;28;20211;-71
2022/09/16 11:08:16;;;;;;;10.57;2.97;;;31.80;50.40;;;;;;5025691;28;20262;-71
2022/09/16 11:10:56;;;;;;;6.83;2.40;;;31.70;50.10;;;;;;5024347;28;20200;-71
2022/09/16 11:13:42;;;;;;;10.87;2.73;;;31.70;50.10;;;;;;5030501;28;20219;-71
2022/09/16 11:16:21;;;;;;;12.23;3.00;;;31.60;51.00;;;;;;5029149;28;20212;-71
2022/09/16 11:19:16;;;;;;;7.63;2.73;;;31.60;50.00;;;;;;5024133;28;20301;-71
2022/09/16 11:21:59;;;;;;;9.53;2.90;;;31.70;50.30;;;;;;5029074;28;20207;-71
2022/09/16 11:25:05;;;;;;;6.57;2.70;;;31.80;50.50;;;;;;5029195;28;20195;-71
2022/09/16 11:27:42;;;;;;;8.83;2.57;;;31.80;49.40;;;;;;5023295;28;20204;-71
2022/09/16 11:30:14;;;;;;;13.73;2.57;;;31.90;49.80;;;;;;5028611;28;20242;-71
2022/09/16 11:33:10;;;;;;;3.57;1.67;;;31.90;49.70;;;;;;5021594;28;20263;-71
2022/09/16 11:35:46;;;;;;;5.67;2.50;;;32.00;48.80;;;;;;5021645;28;20229;-71
2022/09/16 11:38:45;;;;;;;7.70;2.50;;;32.10;49.60;;;;;;5025661;28;20219;-71
2022/09/16 11:41:23;;;;;;;9.00;2.43;;;32.20;49.30;;;;;;5022524;28;20766;-71
2022/09/16 11:43:56;;;;;;;5.10;2.13;;;32.40;49.30;;;;;;5033247;28;20204;-71
2022/09/16 11:46:40;;;;;;;11.37;2.93;;;32.60;49.30;;;;;;5025236;28;20218;-71
2022/09/16 11:49:38;;;;;;;6.10;2.20;;;32.70;48.90;;;;;;5024458;28;20199;-71
2022/09/16 11:52:36;;;;;;;10.83;2.70;;;32.80;48.60;;;;;;5023849;28;20235;-72
2022/09/16 11:55:05;;;;;;;5.77;2.43;;;33.00;48.20;;;;;;5027341;28;20217;-71
2022/09/16 11:57:38;;;;;;;5.80;1.87;;;33.00;48.20;;;;;;5025054;28;20243;-71
2022/09/16 12:00:11;;;;;;;6.60;2.20;;;33.20;47.10;;;;;;5022989;28;20211;-71
2022/09/16 12:02:48;;;;;;;4.63;1.70;;;33.10;45.90;;;;;;5027385;28;20276;-71
2022/09/16 12:05:21;;;;;;;8.10;2.57;;;33.00;47.00;;;;;;5032152;28;20824;-71
2022/09/16 12:08:02;;;;;;;4.67;1.83;;;32.90;47.30;;;;;;5027461;28;20588;-71
2022/09/16 12:10:42;;;;;;;9.63;2.23;;;32.80;48.20;;;;;;5021250;28;20713;-71
2022/09/16 12:13:28;;;;;;;5.13;2.17;;;32.60;48.40;;;;;;5027151;28;20227;-71
2022/09/16 12:16:01;;;;;;;8.27;2.27;;;32.70;48.30;;;;;;5026610;28;20518;-71
2022/09/16 12:18:41;;;;;;;6.73;2.33;;;32.80;47.90;;;;;;5023432;28;20248;-71
2022/09/16 12:21:15;;;;;;;4.77;2.27;;;33.00;47.60;;;;;;5021765;28;20215;-71
2022/09/16 12:23:46;;;;;;;5.63;2.30;;;33.10;47.20;;;;;;5024253;28;20235;-71
2022/09/16 12:26:25;;;;;;;6.67;2.03;;;33.10;47.20;;;;;;5023207;28;20574;-71
2022/09/16 12:29:08;;;;;;;5.93;2.37;;;33.00;47.50;;;;;;5019932;28;20212;-71
2022/09/16 12:32:04;;;;;;;5.90;1.93;;;32.70;48.10;;;;;;5018620;28;20211;-71
2022/09/16 12:34:44;;;;;;;9.53;2.10;;;32.50;47.80;;;;;;5023900;28;20195;-71
2022/09/16 12:37:27;;;;;;;8.50;2.13;;;32.30;48.30;;;;;;5037589;28;20203;-72
2022/09/16 12:39:54;;;;;;;4.47;2.20;;;32.40;49.30;;;;;;5027334;28;20554;-71
2022/09/16 12:42:39;;;;;;;8.13;2.27;;;32.50;48.20;;;;;;5023915;28;20215;-71
2022/09/16 12:45:53;;;;;;;7.60;2.20;;;32.60;48.20;;;;;;5029189;28;20203;-71
2022/09/16 12:48:30;;;;;;;8.27;2.00;;;32.60;48.10;;;;;;5002113;28;20311;-71
2022/09/16 12:51:00;;;;;;;8.20;2.13;;;32.60;48.30;;;;;;5022134;28;20278;-71
2022/09/16 12:53:48;;;;;;;5.03;1.70;;;32.60;48.30;;;;;;5030862;28;20199;-71
2022/09/16 12:56:31;;;;;;;5.80;2.07;;;32.60;48.20;;;;;;5020025;28;20211;-71
2022/09/16 12:59:19;;;;;;;3.63;1.80;;;32.60;48.20;;;;;;5026136;28;20219;-72
2022/09/16 13:02:05;;;;;;;5.60;2.00;;;32.50;48.80;;;;;;5032137;28;20631;-71
2022/09/16 13:04:48;;;;;;;8.33;2.83;;;32.50;48.10;;;;;;5022270;28;20211;-72
2022/09/16 13:07:28;;;;;;;7.13;2.43;;;32.50;47.90;;;;;;5032155;28;20293;-72
2022/09/16 13:10:30;;;;;;;6.10;2.20;;;32.50;47.90;;;;;;5020880;28;20237;-71
2022/09/16 13:13:30;;;;;;;8.63;1.87;;;32.50;48.10;;;;;;5025657;28;20207;-72
2022/09/16 13:15:59;;;;;;;2.60;1.70;;;32.30;48.00;;;;;;5024916;28;20218;-72
2022/09/16 13:18:38;;;;;;;5.40;1.90;;;32.40;48.10;;;;;;5018845;28;20263;-72
2022/09/16 13:21:21;;;;;;;5.70;1.67;;;32.60;48.20;;;;;;5021015;28;20266;-72
2022/09/16 13:24:11;;;;;;;7.63;2.60;;;32.70;48.10;;;;;;5024087;28;20208;-72
2022/09/16 13:26:43;;;;;;;6.80;2.40;;;32.60;47.40;;;;;;5026622;28;20203;-72
2022/09/16 13:29:32;;;;;;;8.80;2.07;;;32.40;47.00;;;;;;5023639;28;20662;-72